Vineburg, California
Current Conditions -  °F | °C
As of 1:54 PM on Thursday 18 Dec 2014 (Local Time) from KAPC Reporting Station
Overcast Overcast  
Wind Chill: 56°   Ceiling: 5000
Heat Index: 56°   Visibility: 10mi
Dew Point: 51°   Wind: 13mph
Humidity: 84%   Direction: 80°E
Pressure: 30.14"   Gusts: NA
Location:  38.27°N, 122.44°W
Report Text: KAPC 182154Z 08011KT 10SM SCT016 OVC050 13/11 A3014 RMK AO2 SLP196 T01330106
Loading
Personal Weather Stations






























Interactive Weather Map New forecast layout! Learn more

10-Day Weather Forecast

Advertisements
Track Severe Weather on mobile